Time;durP1;ratioP1;P1;durP2;ratioP2;P2;SDS_P1;SDS_P2;PMS_P1;PMS_P2;Temp;Humidity;BMP_temperature;BMP_pressure;BME280_temperature;BME280_humidity;BME280_pressure;Samples;Min_cycle;Max_cycle;Signal;HPM_P1;HPM_P2
2023/03/17 00:02:17;;;;;;;6.05;2.58;;;13.70;47.30;;;;;;5088189;27;45354;-65
2023/03/17 00:04:44;;;;;;;4.55;2.20;;;13.70;47.30;;;;;;5088321;27;45192;-65
2023/03/17 00:07:12;;;;;;;7.05;2.75;;;13.70;47.40;;;;;;5087941;27;46651;-65
2023/03/17 00:09:40;;;;;;;3.20;2.40;;;13.70;47.30;;;;;;5087961;27;45387;-65
2023/03/17 00:12:10;;;;;;;4.15;2.13;;;13.60;47.30;;;;;;5083780;27;45457;-65
2023/03/17 00:14:37;;;;;;;6.78;2.33;;;13.60;47.30;;;;;;5088220;27;45292;-65
2023/03/17 00:17:05;;;;;;;5.90;2.28;;;13.60;47.40;;;;;;5087642;28;45459;-66
2023/03/17 00:19:33;;;;;;;4.05;2.33;;;13.60;47.40;;;;;;5087747;27;45423;-65
2023/03/17 00:22:00;;;;;;;4.80;2.38;;;13.60;47.40;;;;;;5087816;27;45561;-66
2023/03/17 00:24:27;;;;;;;6.03;2.70;;;13.50;47.30;;;;;;5087631;27;45246;-65
2023/03/17 00:26:55;;;;;;;4.28;2.05;;;13.50;47.40;;;;;;5087599;27;45476;-65
2023/03/17 00:29:22;;;;;;;4.97;2.08;;;13.50;47.40;;;;;;5087587;27;45357;-66
2023/03/17 00:31:49;;;;;;;6.55;2.80;;;13.50;47.40;;;;;;5087894;27;45426;-66
2023/03/17 00:34:18;;;;;;;3.05;2.05;;;13.50;47.40;;;;;;5087883;27;45368;-66
2023/03/17 00:36:45;;;;;;;4.65;2.28;;;13.50;47.40;;;;;;5087301;27;46682;-66
2023/03/17 00:39:13;;;;;;;4.13;2.22;;;13.50;47.40;;;;;;5086161;27;45312;-65
2023/03/17 00:41:40;;;;;;;3.05;1.88;;;13.50;47.40;;;;;;5087354;27;45248;-65
2023/03/17 00:44:08;;;;;;;3.08;2.17;;;13.50;47.40;;;;;;5087682;27;45245;-66
2023/03/17 00:46:36;;;;;;;3.70;1.90;;;13.40;47.40;;;;;;5087383;27;47835;-66
2023/03/17 00:49:04;;;;;;;2.40;1.90;;;13.40;47.40;;;;;;5087224;27;45407;-65
2023/03/17 00:51:31;;;;;;;3.53;2.08;;;13.40;47.40;;;;;;5087346;27;45390;-65
2023/03/17 00:53:57;;;;;;;3.83;2.17;;;13.40;47.40;;;;;;5087537;27;45327;-65
2023/03/17 00:56:24;;;;;;;4.60;1.98;;;13.40;47.40;;;;;;5086944;27;46408;-65
2023/03/17 00:58:51;;;;;;;2.90;2.10;;;13.40;47.50;;;;;;5087040;27;45324;-69
2023/03/17 01:01:19;;;;;;;3.38;2.30;;;13.40;47.50;;;;;;5087091;27;45386;-65
2023/03/17 01:03:46;;;;;;;3.40;2.00;;;13.40;47.50;;;;;;5087309;27;45471;-65
2023/03/17 01:06:13;;;;;;;4.32;2.38;;;13.40;47.60;;;;;;5086929;27;46551;-65
2023/03/17 01:08:40;;;;;;;2.95;2.17;;;13.40;47.50;;;;;;5087001;27;45442;-65
2023/03/17 01:11:07;;;;;;;3.70;2.05;;;13.30;47.50;;;;;;5086912;27;45460;-65
2023/03/17 01:13:34;;;;;;;3.03;1.90;;;13.30;47.60;;;;;;5087213;27;45356;-65
2023/03/17 01:16:01;;;;;;;4.80;2.08;;;13.30;47.60;;;;;;5086665;27;46264;-65
2023/03/17 01:18:29;;;;;;;2.65;1.83;;;13.30;47.60;;;;;;5086719;27;45398;-65
2023/03/17 01:20:56;;;;;;;6.47;2.20;;;13.30;47.60;;;;;;5086852;27;45430;-65
2023/03/17 01:23:23;;;;;;;5.03;2.15;;;13.30;47.70;;;;;;5086949;27;45387;-65
2023/03/17 01:25:50;;;;;;;2.50;2.00;;;13.20;47.50;;;;;;5086651;27;47295;-65
2023/03/17 01:28:17;;;;;;;3.60;2.08;;;13.20;47.60;;;;;;5086758;27;45307;-67
2023/03/17 01:30:45;;;;;;;2.95;2.00;;;13.20;47.60;;;;;;5086663;27;45293;-64
2023/03/17 01:33:13;;;;;;;3.20;2.13;;;13.20;47.60;;;;;;5086807;27;45308;-66
2023/03/17 01:35:42;;;;;;;3.85;1.80;;;13.20;47.70;;;;;;5086338;27;45204;-64
2023/03/17 01:38:10;;;;;;;2.95;1.80;;;13.20;47.60;;;;;;5086573;27;45282;-66
2023/03/17 01:40:39;;;;;;;4.57;2.15;;;13.20;47.70;;;;;;5086571;27;45288;-67
2023/03/17 01:43:17;;;;;;;2.75;1.80;;;13.10;47.50;;;;;;5086445;27;45250;-66
2023/03/17 01:46:16;;;;;;;2.47;1.63;;;13.10;47.60;;;;;;5086410;27;46882;-66
2023/03/17 01:48:44;;;;;;;2.63;1.92;;;13.10;47.60;;;;;;5086345;27;45301;-67
2023/03/17 01:51:16;;;;;;;3.47;1.95;;;13.10;47.60;;;;;;5085951;27;45245;-66
2023/03/17 01:53:43;;;;;;;2.53;2.00;;;13.10;47.70;;;;;;5086630;27;45273;-66
2023/03/17 01:56:10;;;;;;;2.08;1.75;;;13.10;47.80;;;;;;5086049;27;45393;-67
2023/03/17 01:58:38;;;;;;;3.03;1.95;;;13.00;47.80;;;;;;5086156;27;45331;-66
2023/03/17 02:01:06;;;;;;;3.03;1.85;;;13.00;47.80;;;;;;5086258;27;45265;-66
2023/03/17 02:03:33;;;;;;;3.95;1.88;;;13.00;47.80;;;;;;5086423;27;45307;-67
2023/03/17 02:06:00;;;;;;;2.55;1.80;;;13.00;47.80;;;;;;5086036;27;45451;-66
2023/03/17 02:08:28;;;;;;;2.00;1.75;;;13.00;47.90;;;;;;5086113;27;45259;-67
2023/03/17 02:10:56;;;;;;;2.15;1.70;;;13.00;47.90;;;;;;5086210;27;45616;-67
2023/03/17 02:13:23;;;;;;;1.95;1.83;;;12.90;47.80;;;;;;5086253;27;45569;-66
2023/03/17 02:15:51;;;;;;;7.05;1.90;;;12.90;47.80;;;;;;5085916;27;47700;-67
2023/03/17 02:18:18;;;;;;;1.98;1.77;;;12.90;47.80;;;;;;5085817;27;45358;-66
2023/03/17 02:21:27;;;;;;;2.88;1.70;;;12.90;47.90;;;;;;5085953;27;45385;-66
2023/03/17 02:23:54;;;;;;;2.85;1.75;;;12.90;47.80;;;;;;5085750;27;45233;-66
2023/03/17 02:26:21;;;;;;;2.13;1.58;;;12.90;47.90;;;;;;5085718;27;45718;-66
2023/03/17 02:28:48;;;;;;;2.58;1.92;;;12.90;48.00;;;;;;5085842;27;45248;-66
2023/03/17 02:31:16;;;;;;;2.05;1.65;;;12.90;48.00;;;;;;5085676;27;45418;-66
2023/03/17 02:33:43;;;;;;;1.65;1.55;;;12.90;48.00;;;;;;5085883;27;45435;-66
2023/03/17 02:36:10;;;;;;;3.45;1.52;;;12.90;47.90;;;;;;5085461;27;46354;-66
2023/03/17 02:38:38;;;;;;;2.80;1.60;;;12.90;47.90;;;;;;5085668;27;45353;-66
2023/03/17 02:41:06;;;;;;;2.10;1.60;;;12.90;47.90;;;;;;5085554;27;45306;-66
2023/03/17 02:43:33;;;;;;;2.70;1.55;;;12.80;47.90;;;;;;5085853;27;45451;-66
2023/03/17 02:46:00;;;;;;;2.92;1.92;;;12.80;47.90;;;;;;5085434;27;46386;-66
2023/03/17 02:48:27;;;;;;;3.45;1.90;;;12.80;47.90;;;;;;5085479;27;45299;-66
2023/03/17 02:50:54;;;;;;;2.25;1.60;;;12.80;48.00;;;;;;5085499;27;45291;-66
2023/03/17 02:53:20;;;;;;;1.40;1.30;;;12.80;48.00;;;;;;5085806;27;45562;-66
2023/03/17 02:55:49;;;;;;;2.45;1.90;;;12.80;48.00;;;;;;5084861;27;46427;-65
2023/03/17 02:58:16;;;;;;;2.25;1.70;;;12.80;48.60;;;;;;5085344;27;45266;-65
2023/03/17 03:00:43;;;;;;;1.73;1.52;;;12.80;48.00;;;;;;5085498;27;45388;-65
2023/03/17 03:03:10;;;;;;;2.00;1.70;;;12.70;48.00;;;;;;5084612;28;45296;-65
2023/03/17 03:05:37;;;;;;;2.50;1.30;;;12.70;48.00;;;;;;5085221;27;46675;-65
2023/03/17 03:08:04;;;;;;;2.30;1.65;;;12.70;48.60;;;;;;5085155;27;45325;-65
2023/03/17 03:10:31;;;;;;;2.47;1.53;;;12.70;48.00;;;;;;5085179;27;45326;-65
2023/03/17 03:13:00;;;;;;;1.80;1.50;;;12.70;48.10;;;;;;5085369;27;45285;-65
2023/03/17 03:15:27;;;;;;;2.15;1.60;;;12.70;48.00;;;;;;5084923;27;45401;-65
2023/03/17 03:17:54;;;;;;;2.15;1.90;;;12.70;48.00;;;;;;5085125;27;45369;-65
2023/03/17 03:20:21;;;;;;;3.10;1.33;;;12.70;48.00;;;;;;5085143;27;45290;-65
2023/03/17 03:22:47;;;;;;;2.00;1.45;;;12.60;48.00;;;;;;5085267;27;45349;-65
2023/03/17 03:25:15;;;;;;;1.75;1.30;;;12.60;48.00;;;;;;5084615;27;46358;-65
2023/03/17 03:27:42;;;;;;;1.67;1.50;;;12.60;48.00;;;;;;5084947;27;45328;-65
2023/03/17 03:30:12;;;;;;;1.40;1.30;;;12.60;48.00;;;;;;5085183;27;45306;-65
2023/03/17 03:32:39;;;;;;;2.63;1.50;;;12.60;48.10;;;;;;5085098;27;45237;-65
2023/03/17 03:35:07;;;;;;;1.80;1.50;;;12.60;48.10;;;;;;5084811;27;45340;-65
2023/03/17 03:37:34;;;;;;;2.28;1.48;;;12.50;48.10;;;;;;5084721;27;45409;-64
2023/03/17 03:40:00;;;;;;;1.63;1.20;;;12.50;48.00;;;;;;5085081;27;45221;-65
2023/03/17 03:42:27;;;;;;;2.75;1.33;;;12.50;48.10;;;;;;5084900;27;45385;-65
2023/03/17 03:44:54;;;;;;;3.05;1.60;;;12.50;48.00;;;;;;5084721;27;46679;-65
2023/03/17 03:47:22;;;;;;;2.30;1.30;;;12.50;48.10;;;;;;5084637;27;45209;-65
2023/03/17 03:49:49;;;;;;;1.52;1.20;;;12.50;48.00;;;;;;5084715;27;45376;-67
2023/03/17 03:52:16;;;;;;;3.10;1.83;;;12.50;48.10;;;;;;5084836;27;45340;-66
2023/03/17 03:54:43;;;;;;;1.88;1.50;;;12.50;48.10;;;;;;5084550;27;45317;-66
2023/03/17 03:57:10;;;;;;;1.98;1.45;;;12.50;48.00;;;;;;5084562;27;45311;-67
2023/03/17 03:59:37;;;;;;;1.48;1.25;;;12.50;48.00;;;;;;5084680;27;45285;-66
2023/03/17 04:02:05;;;;;;;3.13;1.58;;;12.50;48.00;;;;;;5084778;27;45331;-67
2023/03/17 04:04:34;;;;;;;1.55;1.20;;;12.50;48.10;;;;;;5084471;27;45430;-67
2023/03/17 04:07:01;;;;;;;2.60;1.10;;;12.40;48.70;;;;;;5084426;27;45252;-67
2023/03/17 04:09:28;;;;;;;1.33;1.10;;;12.40;48.10;;;;;;5084646;27;45298;-66
2023/03/17 04:11:55;;;;;;;2.53;1.35;;;12.40;48.10;;;;;;5084559;27;45263;-66
2023/03/17 04:14:21;;;;;;;1.33;1.20;;;12.40;48.20;;;;;;5083618;27;45783;-66
2023/03/17 04:16:48;;;;;;;2.05;1.50;;;12.30;48.10;;;;;;5087693;27;45277;-66
2023/03/17 04:19:15;;;;;;;1.67;1.30;;;12.30;48.10;;;;;;5087995;27;45280;-66
2023/03/17 04:21:43;;;;;;;1.38;1.20;;;12.40;48.20;;;;;;5087995;27;45471;-67
2023/03/17 04:24:10;;;;;;;3.13;1.20;;;12.40;48.10;;;;;;5087551;27;46360;-67
2023/03/17 04:26:37;;;;;;;1.77;1.30;;;12.40;48.10;;;;;;5087744;27;45195;-66
2023/03/17 04:29:06;;;;;;;1.42;1.30;;;12.40;48.10;;;;;;5087767;27;45214;-66
2023/03/17 04:31:33;;;;;;;2.60;1.25;;;12.30;48.00;;;;;;5087674;27;45518;-66
2023/03/17 04:34:00;;;;;;;1.30;1.00;;;12.30;48.00;;;;;;5087433;27;45379;-66
2023/03/17 04:36:27;;;;;;;2.10;1.27;;;12.30;48.00;;;;;;5087492;27;45385;-66
2023/03/17 04:38:55;;;;;;;1.52;1.30;;;12.30;48.10;;;;;;5087587;27;45320;-66
2023/03/17 04:41:22;;;;;;;1.17;0.90;;;12.30;48.00;;;;;;5087607;27;45198;-66
2023/03/17 04:43:49;;;;;;;2.00;1.15;;;12.30;48.10;;;;;;5087249;27;46410;-66
2023/03/17 04:46:16;;;;;;;2.37;1.00;;;12.30;48.10;;;;;;5087338;27;45356;-66
2023/03/17 04:48:43;;;;;;;2.63;1.30;;;12.30;48.10;;;;;;5087380;27;45339;-66
2023/03/17 04:51:10;;;;;;;2.13;1.30;;;12.20;48.10;;;;;;5087572;27;45315;-65
2023/03/17 04:53:37;;;;;;;1.10;0.90;;;12.30;48.10;;;;;;5087384;27;45251;-66
2023/03/17 04:56:06;;;;;;;1.00;1.00;;;12.20;48.10;;;;;;5087194;27;45233;-66
2023/03/17 04:58:33;;;;;;;1.23;1.08;;;12.20;48.10;;;;;;5087196;27;45277;-66
2023/03/17 05:01:01;;;;;;;1.20;1.10;;;12.20;48.10;;;;;;5087357;27;45276;-66
2023/03/17 05:03:29;;;;;;;2.27;1.20;;;12.20;48.10;;;;;;5086944;27;45799;-66
2023/03/17 05:05:56;;;;;;;1.43;1.20;;;12.20;48.10;;;;;;5087363;27;45308;-66
2023/03/17 05:08:23;;;;;;;1.65;1.10;;;12.20;48.10;;;;;;5087239;27;45253;-66
2023/03/17 05:10:51;;;;;;;1.07;1.00;;;12.20;48.10;;;;;;5087183;27;45179;-66
2023/03/17 05:13:19;;;;;;;1.30;0.90;;;12.10;48.10;;;;;;5086912;27;45354;-67
2023/03/17 05:15:47;;;;;;;1.40;1.27;;;12.10;48.00;;;;;;5086961;27;45480;-66
2023/03/17 05:18:14;;;;;;;1.20;0.97;;;12.10;48.70;;;;;;5086856;27;45292;-66
2023/03/17 05:20:40;;;;;;;1.23;1.10;;;12.10;48.10;;;;;;5087100;27;45387;-66
2023/03/17 05:23:07;;;;;;;1.47;1.10;;;12.10;48.10;;;;;;5086677;27;46387;-66
2023/03/17 05:25:34;;;;;;;0.90;0.90;;;12.10;48.10;;;;;;5085474;27;45626;-66
2023/03/17 05:28:01;;;;;;;1.00;0.90;;;12.10;48.10;;;;;;5086872;27;45290;-66
2023/03/17 05:30:29;;;;;;;1.27;1.17;;;12.10;48.70;;;;;;5086898;27;45357;-66
2023/03/17 05:32:56;;;;;;;0.70;0.70;;;12.10;48.00;;;;;;5086337;27;46497;-66
2023/03/17 05:35:23;;;;;;;2.03;0.88;;;12.00;48.00;;;;;;5086578;27;45324;-66
2023/03/17 05:37:50;;;;;;;0.98;0.98;;;12.10;48.10;;;;;;5086526;27;45310;-66
2023/03/17 05:40:17;;;;;;;1.13;0.80;;;12.10;48.00;;;;;;5086763;27;45339;-66
2023/03/17 05:42:44;;;;;;;1.07;0.97;;;12.00;48.00;;;;;;5086281;27;45572;-66
2023/03/17 05:45:11;;;;;;;1.23;1.10;;;12.00;48.60;;;;;;5086389;27;45317;-66
2023/03/17 05:47:40;;;;;;;1.47;1.10;;;12.00;48.10;;;;;;5086543;27;45284;-67
2023/03/17 05:50:08;;;;;;;1.30;0.97;;;12.00;48.10;;;;;;5086630;27;45407;-66
2023/03/17 05:52:35;;;;;;;0.77;0.70;;;12.00;48.10;;;;;;5086144;27;45802;-66
2023/03/17 05:55:02;;;;;;;1.10;1.00;;;12.00;48.10;;;;;;5086149;27;45273;-66
2023/03/17 05:57:29;;;;;;;1.53;0.97;;;12.00;48.10;;;;;;5086177;27;45473;-66
2023/03/17 05:59:56;;;;;;;1.50;1.03;;;12.00;48.10;;;;;;5086445;27;45225;-66
2023/03/17 06:02:23;;;;;;;2.03;1.10;;;12.00;48.10;;;;;;5086025;27;45422;-66
2023/03/17 06:04:51;;;;;;;0.90;0.83;;;12.00;48.10;;;;;;5086107;27;45243;-66
2023/03/17 06:07:18;;;;;;;1.67;0.90;;;12.00;48.00;;;;;;5086316;28;45197;-66
2023/03/17 06:09:45;;;;;;;1.27;1.10;;;12.00;48.10;;;;;;5086291;27;45410;-66
2023/03/17 06:12:12;;;;;;;1.00;1.00;;;11.90;48.00;;;;;;5085694;27;45472;-66
2023/03/17 06:14:39;;;;;;;0.70;0.70;;;11.90;47.90;;;;;;5085849;27;45406;-66
2023/03/17 06:17:06;;;;;;;0.90;0.80;;;11.90;48.00;;;;;;5085878;27;45296;-66
2023/03/17 06:19:33;;;;;;;0.80;0.80;;;11.90;48.00;;;;;;5086208;27;45217;-66
2023/03/17 06:22:01;;;;;;;1.37;0.93;;;12.00;48.00;;;;;;5085621;27;45744;-66
2023/03/17 06:24:28;;;;;;;0.87;0.80;;;11.90;47.90;;;;;;5085467;27;45261;-66
2023/03/17 06:26:55;;;;;;;0.87;0.80;;;11.90;48.00;;;;;;5085897;27;45254;-66
2023/03/17 06:29:21;;;;;;;1.60;1.10;;;11.90;48.00;;;;;;5085969;27;45439;-66
2023/03/17 06:31:49;;;;;;;2.20;1.17;;;11.90;47.90;;;;;;5085597;27;45336;-66
2023/03/17 06:34:16;;;;;;;1.50;0.90;;;11.90;47.90;;;;;;5085497;27;45333;-66
2023/03/17 06:36:44;;;;;;;1.40;0.90;;;11.90;48.00;;;;;;5085637;27;45446;-66
2023/03/17 06:39:12;;;;;;;0.90;0.90;;;11.90;48.00;;;;;;5085729;27;45305;-66
2023/03/17 06:41:39;;;;;;;0.93;0.90;;;11.90;47.90;;;;;;5085244;27;46723;-65
2023/03/17 06:44:07;;;;;;;1.70;0.80;;;11.90;47.90;;;;;;5085451;27;45331;-65
2023/03/17 06:46:34;;;;;;;1.27;0.90;;;11.90;48.00;;;;;;5085640;27;45327;-65
2023/03/17 06:49:01;;;;;;;1.53;1.00;;;11.90;47.90;;;;;;5085670;27;45312;-66
2023/03/17 06:51:29;;;;;;;1.57;1.07;;;11.90;47.90;;;;;;5084999;27;46662;-65
2023/03/17 06:53:55;;;;;;;1.20;0.90;;;11.90;48.00;;;;;;5085221;27;45252;-66
2023/03/17 06:56:24;;;;;;;1.00;0.93;;;11.90;47.90;;;;;;5085292;27;45449;-65
2023/03/17 06:58:51;;;;;;;1.10;1.00;;;11.90;47.90;;;;;;5085566;27;45279;-65
2023/03/17 07:01:18;;;;;;;0.70;0.70;;;11.90;47.90;;;;;;5085158;27;47423;-65
2023/03/17 07:03:45;;;;;;;0.80;0.80;;;11.90;47.80;;;;;;5085344;27;45315;-65
2023/03/17 07:06:13;;;;;;;1.47;0.90;;;11.90;47.90;;;;;;5085202;27;45347;-65
2023/03/17 07:08:40;;;;;;;0.70;0.70;;;11.90;47.80;;;;;;5085230;27;45311;-65
2023/03/17 07:11:07;;;;;;;1.20;1.10;;;11.90;47.90;;;;;;5084697;27;45265;-65
2023/03/17 07:13:37;;;;;;;1.10;1.00;;;11.90;47.90;;;;;;5085107;27;45350;-65
2023/03/17 07:16:04;;;;;;;0.90;0.90;;;11.90;47.80;;;;;;5085148;27;45358;-65
2023/03/17 07:18:32;;;;;;;1.60;1.00;;;11.90;47.80;;;;;;5085199;27;45410;-65
2023/03/17 07:21:00;;;;;;;1.00;0.90;;;11.90;47.80;;;;;;5084727;27;46930;-65
2023/03/17 07:23:27;;;;;;;0.90;0.90;;;12.00;47.80;;;;;;5084718;27;45336;-65
2023/03/17 07:25:56;;;;;;;1.03;1.00;;;12.00;47.70;;;;;;5085155;27;45277;-66
2023/03/17 07:28:22;;;;;;;1.47;1.10;;;12.00;47.70;;;;;;5084946;27;45305;-65
2023/03/17 07:30:51;;;;;;;1.27;1.10;;;12.00;47.70;;;;;;5084493;27;46567;-65
2023/03/17 07:33:19;;;;;;;0.87;0.87;;;12.00;47.70;;;;;;5084841;27;45389;-65
2023/03/17 07:35:47;;;;;;;0.97;0.83;;;12.00;47.80;;;;;;5084912;27;45326;-66
2023/03/17 07:38:14;;;;;;;0.83;0.80;;;12.00;47.80;;;;;;5084619;27;45281;-65
2023/03/17 07:40:41;;;;;;;1.60;0.80;;;12.00;47.70;;;;;;5084295;27;45823;-65
2023/03/17 07:43:08;;;;;;;0.87;0.87;;;12.00;47.80;;;;;;5084787;27;45379;-66
2023/03/17 07:45:35;;;;;;;1.17;0.73;;;12.00;47.70;;;;;;5084743;27;45333;-65
2023/03/17 07:48:03;;;;;;;0.80;0.80;;;12.00;47.70;;;;;;5084864;27;45246;-65
2023/03/17 07:50:31;;;;;;;1.03;0.90;;;12.00;47.70;;;;;;5087898;27;46711;-65
2023/03/17 07:52:57;;;;;;;0.73;0.70;;;12.00;47.60;;;;;;5087919;27;45219;-65
2023/03/17 07:55:24;;;;;;;1.67;0.77;;;12.00;47.60;;;;;;5088178;27;45381;-65
2023/03/17 07:57:51;;;;;;;1.37;1.17;;;12.00;47.60;;;;;;5088221;27;45276;-66
2023/03/17 08:00:19;;;;;;;0.93;0.70;;;12.10;47.70;;;;;;5087878;27;46345;-65
2023/03/17 08:02:46;;;;;;;1.37;0.97;;;12.10;47.70;;;;;;5087870;27;45237;-65
2023/03/17 08:05:14;;;;;;;1.03;0.90;;;12.10;47.70;;;;;;5087893;27;45306;-66
2023/03/17 08:07:41;;;;;;;1.03;0.77;;;12.10;47.70;;;;;;5088118;27;45474;-65
2023/03/17 08:10:08;;;;;;;0.80;0.80;;;12.10;48.20;;;;;;5087780;27;46606;-65
2023/03/17 08:12:35;;;;;;;0.73;0.73;;;12.10;47.60;;;;;;5087602;27;45340;-65
2023/03/17 08:15:02;;;;;;;1.77;0.97;;;12.10;47.50;;;;;;5087815;27;45478;-65
2023/03/17 08:17:30;;;;;;;0.80;0.80;;;12.10;47.50;;;;;;5087967;27;45435;-65
2023/03/17 08:19:57;;;;;;;0.80;0.80;;;12.20;47.50;;;;;;5087546;27;45440;-66
2023/03/17 08:22:26;;;;;;;0.80;0.80;;;12.20;47.60;;;;;;5087491;27;45247;-65
2023/03/17 08:24:53;;;;;;;0.80;0.80;;;12.20;47.60;;;;;;5087471;27;45510;-65
2023/03/17 08:27:21;;;;;;;0.83;0.83;;;12.10;47.50;;;;;;5087876;27;45459;-65
2023/03/17 08:29:48;;;;;;;0.70;0.70;;;12.20;47.60;;;;;;5087409;27;45808;-66
2023/03/17 08:32:15;;;;;;;1.10;1.00;;;12.20;47.60;;;;;;5087316;27;45352;-65
2023/03/17 08:34:43;;;;;;;1.03;0.97;;;12.20;47.60;;;;;;5087646;27;45269;-65
2023/03/17 08:37:10;;;;;;;1.27;1.00;;;12.20;47.50;;;;;;5087644;27;45648;-65
2023/03/17 08:39:38;;;;;;;1.03;0.70;;;12.20;47.50;;;;;;5087257;27;46625;-66
2023/03/17 08:42:06;;;;;;;0.80;0.80;;;12.30;47.50;;;;;;5087164;27;45380;-65
2023/03/17 08:44:33;;;;;;;0.83;0.63;;;12.30;47.50;;;;;;5087457;27;45311;-65
2023/03/17 08:47:00;;;;;;;1.13;0.90;;;12.30;47.50;;;;;;5087714;27;45338;-65
2023/03/17 08:49:27;;;;;;;0.80;0.63;;;12.30;47.50;;;;;;5087268;27;45799;-68
2023/03/17 08:51:54;;;;;;;1.47;0.70;;;12.30;47.40;;;;;;5087072;27;45307;-66
2023/03/17 08:54:21;;;;;;;0.80;0.70;;;12.30;47.30;;;;;;5087322;27;45437;-65
2023/03/17 08:56:49;;;;;;;1.07;0.93;;;12.40;47.40;;;;;;5087270;27;45281;-65
2023/03/17 08:59:16;;;;;;;1.00;1.00;;;12.40;47.40;;;;;;5086634;27;46842;-65
2023/03/17 09:01:44;;;;;;;0.87;0.77;;;12.40;47.30;;;;;;5085810;27;45291;-65
2023/03/17 09:04:11;;;;;;;0.60;0.60;;;12.40;48.00;;;;;;5087070;27;45402;-65
2023/03/17 09:06:37;;;;;;;0.90;0.90;;;12.40;47.30;;;;;;5087206;27;45241;-65
2023/03/17 09:09:05;;;;;;;1.10;0.90;;;12.40;47.40;;;;;;5087095;27;45446;-65
2023/03/17 09:11:32;;;;;;;0.90;0.90;;;12.50;47.40;;;;;;5086706;27;45336;-65
2023/03/17 09:14:01;;;;;;;1.07;0.70;;;12.50;47.40;;;;;;5087021;27;45313;-66
2023/03/17 09:16:28;;;;;;;1.33;0.80;;;12.50;47.40;;;;;;5087024;27;45494;-65
2023/03/17 09:18:55;;;;;;;0.83;0.83;;;12.50;47.50;;;;;;5086473;27;46372;-65
2023/03/17 09:21:22;;;;;;;1.00;0.70;;;12.50;47.50;;;;;;5086624;27;45328;-66
2023/03/17 09:23:49;;;;;;;0.87;0.70;;;12.50;47.50;;;;;;5086505;27;45189;-65
2023/03/17 09:26:16;;;;;;;1.10;0.80;;;12.50;47.50;;;;;;5086797;27;45284;-65
2023/03/17 09:28:43;;;;;;;2.43;0.90;;;12.50;47.50;;;;;;5086137;27;45290;-67
2023/03/17 09:31:12;;;;;;;3.43;1.20;;;12.50;48.70;;;;;;5086008;27;45265;-65
2023/03/17 09:33:39;;;;;;;2.37;1.60;;;12.50;48.90;;;;;;5086596;27;45234;-66
2023/03/17 09:36:07;;;;;;;4.07;2.63;;;12.60;49.00;;;;;;5086861;27;45492;-66
2023/03/17 09:38:34;;;;;;;4.67;1.87;;;12.60;48.60;;;;;;5086360;27;46742;-69
2023/03/17 09:41:07;;;;;;;5.53;2.53;;;12.70;48.70;;;;;;5086183;27;45280;-65
2023/03/17 09:43:37;;;;;;;2.50;2.00;;;12.80;48.80;;;;;;5086534;27;45285;-66
2023/03/17 09:46:08;;;;;;;2.40;1.80;;;12.90;47.80;;;;;;5086552;27;45594;-66
2023/03/17 09:48:45;;;;;;;2.33;1.30;;;12.90;47.60;;;;;;5086228;27;45434;-65
2023/03/17 09:51:12;;;;;;;3.53;1.60;;;12.90;47.50;;;;;;5086072;27;45342;-66
2023/03/17 09:53:42;;;;;;;3.42;1.70;;;12.90;47.40;;;;;;5086411;27;45353;-66
2023/03/17 09:56:12;;;;;;;5.15;1.77;;;13.00;47.50;;;;;;5086300;27;45329;-66
2023/03/17 09:58:39;;;;;;;3.22;1.80;;;13.00;47.50;;;;;;5085915;27;45491;-66
2023/03/17 10:01:08;;;;;;;1.23;1.13;;;13.00;47.90;;;;;;5086203;27;45433;-66
2023/03/17 10:03:36;;;;;;;1.38;1.27;;;13.00;47.50;;;;;;5086140;27;45373;-66
2023/03/17 10:06:22;;;;;;;2.57;1.27;;;13.00;47.40;;;;;;5086232;27;45317;-66
2023/03/17 10:08:53;;;;;;;1.23;1.13;;;13.10;47.50;;;;;;5086287;27;45172;-65
2023/03/17 10:11:26;;;;;;;1.97;1.50;;;13.10;47.40;;;;;;5085390;27;45360;-66
2023/03/17 10:13:56;;;;;;;7.43;1.80;;;13.10;47.40;;;;;;5086110;27;45280;-66
2023/03/17 10:16:28;;;;;;;2.90;1.73;;;13.10;47.40;;;;;;5086174;27;45465;-66
2023/03/17 10:18:56;;;;;;;2.33;1.80;;;13.20;47.40;;;;;;5085784;27;46342;-65
2023/03/17 10:21:26;;;;;;;2.57;1.83;;;13.20;47.30;;;;;;5085676;27;45311;-65
2023/03/17 10:23:54;;;;;;;1.90;1.30;;;13.20;47.40;;;;;;5085533;27;45300;-66
2023/03/17 10:26:27;;;;;;;1.75;1.58;;;13.20;47.30;;;;;;5085964;27;45323;-66
2023/03/17 10:28:54;;;;;;;1.63;1.37;;;13.30;47.30;;;;;;5085483;27;46681;-66
2023/03/17 10:31:27;;;;;;;1.60;1.50;;;13.30;47.30;;;;;;5085534;27;45308;-66
2023/03/17 10:33:55;;;;;;;3.93;1.80;;;13.30;47.30;;;;;;5085902;27;45340;-65
2023/03/17 10:36:35;;;;;;;1.73;1.27;;;13.30;47.30;;;;;;5085973;27;45295;-66
2023/03/17 10:39:06;;;;;;;1.80;1.50;;;13.40;47.30;;;;;;5085471;27;45394;-65
2023/03/17 10:41:35;;;;;;;1.50;1.40;;;13.40;47.30;;;;;;5085238;27;45296;-66
2023/03/17 10:44:02;;;;;;;1.87;1.60;;;13.40;47.20;;;;;;5085554;27;45261;-66
2023/03/17 10:46:29;;;;;;;2.38;1.45;;;13.50;47.20;;;;;;5085740;27;45502;-66
2023/03/17 10:48:58;;;;;;;3.20;1.50;;;13.50;47.20;;;;;;5085292;27;45887;-66
2023/03/17 10:51:30;;;;;;;1.43;1.33;;;13.60;47.40;;;;;;5085146;27;45354;-66
2023/03/17 10:54:00;;;;;;;1.95;1.30;;;13.70;47.80;;;;;;5085413;27;45259;-67
2023/03/17 10:56:28;;;;;;;1.40;1.30;;;13.70;47.80;;;;;;5085695;27;45431;-66
2023/03/17 10:58:55;;;;;;;3.67;1.60;;;13.70;47.80;;;;;;5085072;27;46652;-66
2023/03/17 11:01:24;;;;;;;4.27;1.50;;;13.80;47.90;;;;;;5085111;27;45295;-66
2023/03/17 11:03:51;;;;;;;2.45;1.25;;;13.80;47.90;;;;;;5085179;27;45202;-67
2023/03/17 11:06:19;;;;;;;1.80;1.30;;;13.90;48.00;;;;;;5085420;27;45396;-66
2023/03/17 11:08:47;;;;;;;1.73;1.40;;;14.00;48.00;;;;;;5082447;27;45502;-66
2023/03/17 11:11:24;;;;;;;2.53;1.50;;;14.00;48.00;;;;;;5084987;27;45305;-66
2023/03/17 11:13:52;;;;;;;2.13;1.35;;;14.00;48.00;;;;;;5085173;27;45196;-66
2023/03/17 11:16:21;;;;;;;1.30;1.20;;;14.10;48.10;;;;;;5085364;27;45431;-66
2023/03/17 11:18:48;;;;;;;1.17;1.10;;;14.10;48.10;;;;;;5084804;27;46481;-66
2023/03/17 11:21:16;;;;;;;2.03;1.63;;;14.20;48.10;;;;;;5084784;27;45323;-66
2023/03/17 11:23:48;;;;;;;1.13;1.03;;;14.20;48.10;;;;;;5086010;27;45288;-66
2023/03/17 11:26:38;;;;;;;2.17;1.38;;;14.30;47.90;;;;;;5088904;27;45312;-66
2023/03/17 11:29:18;;;;;;;2.00;1.45;;;14.40;48.00;;;;;;5088434;27;45316;-66
2023/03/17 11:31:47;;;;;;;1.30;1.20;;;14.40;48.00;;;;;;5088637;28;45273;-66
2023/03/17 11:34:18;;;;;;;1.40;1.30;;;14.40;47.80;;;;;;5088831;27;45481;-66
2023/03/17 11:36:47;;;;;;;1.70;1.60;;;14.50;47.90;;;;;;5088514;27;45256;-66
2023/03/17 11:39:16;;;;;;;1.45;1.30;;;14.40;47.90;;;;;;5088242;27;45473;-66
2023/03/17 11:41:51;;;;;;;3.78;1.23;;;14.50;48.00;;;;;;5088252;27;45374;-66
2023/03/17 11:44:50;;;;;;;2.05;1.60;;;14.40;48.10;;;;;;5088389;27;45396;-66
2023/03/17 11:47:32;;;;;;;1.48;1.20;;;14.50;48.10;;;;;;5088301;28;45202;-67
2023/03/17 11:50:02;;;;;;;1.65;1.17;;;14.50;48.10;;;;;;5088211;27;47303;-66
2023/03/17 11:52:31;;;;;;;3.17;1.35;;;14.50;47.90;;;;;;5087958;27;45321;-66
2023/03/17 11:55:00;;;;;;;1.33;1.20;;;14.60;47.90;;;;;;5088240;27;45279;-66
2023/03/17 11:57:31;;;;;;;1.73;1.23;;;14.60;47.80;;;;;;5088400;27;45185;-66
2023/03/17 11:59:59;;;;;;;1.38;1.27;;;14.70;47.80;;;;;;5087847;27;45353;-66
2023/03/17 12:02:29;;;;;;;2.25;1.30;;;14.70;48.30;;;;;;5087611;27;45315;-66
2023/03/17 12:04:58;;;;;;;1.25;1.15;;;14.80;47.50;;;;;;5088033;27;45289;-67
2023/03/17 12:07:26;;;;;;;5.20;1.43;;;14.90;47.70;;;;;;5088184;27;45310;-67
2023/03/17 12:09:58;;;;;;;2.47;1.20;;;14.90;47.60;;;;;;5087930;27;45547;-66
2023/03/17 12:12:30;;;;;;;2.45;1.30;;;14.90;47.40;;;;;;5087726;27;45246;-67
2023/03/17 12:14:57;;;;;;;2.63;1.30;;;15.00;47.60;;;;;;5087795;27;45243;-67
2023/03/17 12:17:25;;;;;;;2.95;1.48;;;15.00;47.50;;;;;;5088046;27;45279;-67
2023/03/17 12:19:59;;;;;;;1.50;1.40;;;15.00;47.70;;;;;;5087388;27;45200;-66
2023/03/17 12:22:29;;;;;;;1.58;1.25;;;15.00;47.70;;;;;;5087454;27;45139;-66
2023/03/17 12:25:03;;;;;;;1.92;1.23;;;15.10;47.80;;;;;;5087450;27;45382;-66
2023/03/17 12:27:32;;;;;;;2.38;1.17;;;15.10;47.70;;;;;;5087654;28;45568;-66
2023/03/17 12:30:02;;;;;;;1.77;1.65;;;15.10;47.70;;;;;;5087484;27;46669;-66
2023/03/17 12:32:32;;;;;;;1.35;1.25;;;15.10;47.80;;;;;;5087416;27;45625;-68
2023/03/17 12:35:00;;;;;;;2.42;1.45;;;15.10;47.80;;;;;;5087340;27;45260;-68
2023/03/17 12:37:28;;;;;;;2.80;1.60;;;15.20;47.70;;;;;;5087704;27;45284;-67
2023/03/17 12:39:59;;;;;;;2.00;1.30;;;15.30;47.80;;;;;;5087095;27;45319;-66
2023/03/17 12:42:36;;;;;;;3.15;1.63;;;15.30;47.50;;;;;;5087192;27;45304;-66
2023/03/17 12:45:35;;;;;;;4.00;1.50;;;15.40;47.40;;;;;;5087474;27;45229;-66
2023/03/17 12:48:28;;;;;;;1.55;1.00;;;15.40;47.60;;;;;;5063847;27;45341;-67
2023/03/17 12:51:16;;;;;;;4.93;1.40;;;15.50;47.60;;;;;;5070601;27;46388;-67
2023/03/17 12:53:44;;;;;;;4.05;1.60;;;15.50;47.60;;;;;;5087391;27;45265;-66
2023/03/17 12:56:13;;;;;;;2.50;1.42;;;15.50;47.60;;;;;;5087284;27;45335;-67